Time;durP1;ratioP1;P1;durP2;ratioP2;P2;SDS_P1;SDS_P2;PMS_P1;PMS_P2;Temp;Humidity;BMP_temperature;BMP_pressure;BME280_temperature;BME280_humidity;BME280_pressure;Samples;Min_cycle;Max_cycle;Signal;HPM_P1;HPM_P2
2021/05/21 00:00:40;;;;;;;2.55;1.65;;;;;;;8.64;71.80;93607.13;5011591;28;20026;-67
2021/05/21 00:03:06;;;;;;;1.92;1.52;;;;;;;8.57;72.28;93606.03;4995432;28;20041;-67
2021/05/21 00:05:32;;;;;;;2.03;1.48;;;;;;;8.55;72.17;93603.66;5012895;28;20024;-66
2021/05/21 00:07:58;;;;;;;2.85;1.55;;;;;;;8.49;72.37;93612.84;5012995;28;20079;-67
2021/05/21 00:10:24;;;;;;;2.17;1.70;;;;;;;8.45;72.50;93603.94;5012594;28;20030;-67
2021/05/21 00:12:49;;;;;;;2.85;1.85;;;;;;;8.41;73.10;93602.97;4995219;28;20037;-66
2021/05/21 00:15:16;;;;;;;2.05;1.70;;;;;;;8.33;73.47;93593.06;4994806;28;20121;-67
2021/05/21 00:17:41;;;;;;;4.47;2.15;;;;;;;8.36;73.94;93595.09;4994792;28;20045;-67
2021/05/21 00:20:07;;;;;;;4.55;2.15;;;;;;;8.37;73.65;93596.69;5012791;28;20045;-67
2021/05/21 00:22:33;;;;;;;3.30;1.90;;;;;;;8.33;73.54;93607.13;5012585;28;20489;-67
2021/05/21 00:24:58;;;;;;;2.85;1.85;;;;;;;8.28;73.73;93627.69;4995001;28;20014;-66
2021/05/21 00:27:24;;;;;;;3.13;2.35;;;;;;;8.27;73.80;93615.53;5012228;28;20140;-68
2021/05/21 00:29:49;;;;;;;5.35;2.40;;;;;;;8.26;73.85;93612.06;4994440;28;20495;-67
2021/05/21 00:32:14;;;;;;;4.22;2.30;;;;;;;8.23;73.91;93624.06;5012495;28;20041;-67
2021/05/21 00:34:40;;;;;;;3.55;2.58;;;;;;;8.22;74.28;93633.16;5012374;28;20082;-67
2021/05/21 00:37:05;;;;;;;3.10;2.22;;;;;;;8.22;74.34;93633.16;4994963;28;20128;-67
2021/05/21 00:39:31;;;;;;;3.42;2.47;;;;;;;8.28;74.32;93638.31;5012292;28;20028;-67
2021/05/21 00:41:56;;;;;;;3.90;2.47;;;;;;;8.29;73.85;93634.59;5012240;28;20030;-67
2021/05/21 00:44:22;;;;;;;3.13;2.35;;;;;;;8.24;73.84;93635.47;5012316;28;20462;-67
2021/05/21 00:46:47;;;;;;;4.15;2.20;;;;;;;8.31;74.03;93632.41;5011824;28;20412;-67
2021/05/21 00:49:17;;;;;;;3.45;3.00;;;;;;;8.28;73.99;93640.97;4994845;28;20022;-67
2021/05/21 00:51:46;;;;;;;4.28;3.88;;;;;;;8.35;73.93;93638.69;4994288;28;20030;-67
2021/05/21 00:54:19;;;;;;;2.88;2.63;;;;;;;8.43;73.26;93640.63;4994319;28;20026;-67
2021/05/21 00:56:46;;;;;;;3.20;2.47;;;;;;;8.54;73.09;93649.91;5011727;28;20025;-67
2021/05/21 00:59:11;;;;;;;2.85;1.98;;;;;;;8.52;73.16;93651.28;4994141;28;20045;-67
2021/05/21 01:01:37;;;;;;;3.30;2.35;;;;;;;8.48;73.47;93647.69;4994164;28;20064;-67
2021/05/21 01:04:04;;;;;;;2.53;2.08;;;;;;;8.47;73.66;93659.38;5011705;28;20034;-67
2021/05/21 01:06:29;;;;;;;6.20;3.35;;;;;;;8.53;73.36;93668.78;5011983;28;20029;-66
2021/05/21 01:08:55;;;;;;;3.83;2.88;;;;;;;8.54;73.35;93663.19;5011478;28;20124;-66
2021/05/21 01:11:21;;;;;;;3.42;2.50;;;;;;;8.60;73.64;93661.19;5011887;28;20105;-67
2021/05/21 01:13:47;;;;;;;3.17;2.42;;;;;;;8.66;73.16;93670.59;5010256;28;20224;-67
2021/05/21 01:16:12;;;;;;;3.45;2.90;;;;;;;8.73;73.02;93664.84;5011489;28;20394;-66
2021/05/21 01:18:38;;;;;;;3.30;2.50;;;;;;;8.78;72.88;93678.00;4993706;28;20056;-67
2021/05/21 01:21:04;;;;;;;3.88;2.65;;;;;;;8.84;73.10;93674.13;5011382;28;20030;-67
2021/05/21 01:23:29;;;;;;;4.07;2.08;;;;;;;8.86;72.67;93674.59;4993812;28;20034;-66
2021/05/21 01:25:55;;;;;;;3.88;2.90;;;;;;;8.83;72.80;93670.69;4993494;28;20029;-66
2021/05/21 01:28:21;;;;;;;3.40;2.42;;;;;;;8.85;72.62;93665.03;4993832;28;20029;-66
2021/05/21 01:30:47;;;;;;;4.55;2.90;;;;;;;8.79;72.65;93667.06;4993717;28;20038;-67
2021/05/21 01:33:13;;;;;;;5.93;2.03;;;;;;;8.81;72.57;93666.75;5011274;28;20044;-66
2021/05/21 01:35:42;;;;;;;2.67;2.20;;;;;;;8.82;72.88;93674.41;5011182;28;20029;-66
2021/05/21 01:38:08;;;;;;;3.65;2.60;;;;;;;8.82;73.36;93677.06;5010816;28;20057;-66
2021/05/21 01:40:36;;;;;;;3.40;2.15;;;;;;;8.83;73.40;93677.84;4993574;28;20470;-66
2021/05/21 01:43:03;;;;;;;2.97;2.33;;;;;;;8.83;73.09;93683.97;4993132;28;20034;-67
2021/05/21 01:45:29;;;;;;;3.45;2.50;;;;;;;8.83;73.25;93680.50;5011056;28;20021;-66
2021/05/21 01:47:57;;;;;;;3.22;2.38;;;;;;;8.83;73.71;93683.97;5011075;28;20141;-66
2021/05/21 01:50:22;;;;;;;3.28;2.50;;;;;;;8.88;73.28;93682.28;4993484;28;20124;-66
2021/05/21 01:52:48;;;;;;;3.30;2.47;;;;;;;8.84;73.62;93685.53;5011078;28;20049;-66
2021/05/21 01:55:14;;;;;;;2.83;2.08;;;;;;;8.84;73.57;93687.41;5010514;28;20032;-66
2021/05/21 01:57:39;;;;;;;3.45;2.50;;;;;;;8.84;73.49;93687.41;5010942;28;20037;-66
2021/05/21 02:00:08;;;;;;;2.67;2.17;;;;;;;8.82;73.11;93692.25;4993025;28;20551;-67
2021/05/21 02:02:33;;;;;;;3.50;2.10;;;;;;;8.66;73.78;93688.41;5010739;28;20040;-66
2021/05/21 02:04:58;;;;;;;4.57;2.15;;;;;;;8.66;73.83;93691.06;4993068;28;20390;-66
2021/05/21 02:07:24;;;;;;;3.20;2.00;;;;;;;8.57;74.29;93688.38;4993009;28;20033;-66
2021/05/21 02:09:57;;;;;;;2.47;1.90;;;;;;;8.57;74.54;93689.16;4993165;28;20109;-66
2021/05/21 02:12:23;;;;;;;4.30;2.70;;;;;;;8.52;74.87;93681.28;4992703;28;20395;-66
2021/05/21 02:14:48;;;;;;;3.60;2.13;;;;;;;8.46;75.39;93673.75;5010585;28;20033;-66
2021/05/21 02:17:14;;;;;;;2.65;1.88;;;;;;;8.50;75.97;93672.84;5010208;28;20038;-66
2021/05/21 02:19:39;;;;;;;3.92;2.22;;;;;;;8.58;76.39;93687.28;5010495;28;20394;-67
2021/05/21 02:22:07;;;;;;;3.38;2.50;;;;;;;8.52;76.87;93683.16;5010772;28;20033;-66
2021/05/21 02:24:34;;;;;;;5.03;2.70;;;;;;;8.46;77.17;93679.84;5010212;28;20033;-66
2021/05/21 02:27:00;;;;;;;3.40;2.10;;;;;;;8.37;77.15;93679.00;4992841;28;20485;-66
2021/05/21 02:29:25;;;;;;;2.80;2.20;;;;;;;8.39;77.58;93674.16;5010234;28;20037;-66
2021/05/21 02:31:51;;;;;;;3.60;2.17;;;;;;;8.37;77.87;93671.03;4992761;28;20449;-66
2021/05/21 02:34:17;;;;;;;3.03;2.17;;;;;;;8.30;77.83;93663.47;4992886;28;20383;-66
2021/05/21 02:36:43;;;;;;;4.95;2.35;;;;;;;8.34;77.92;93664.44;5010603;28;20088;-66
2021/05/21 02:39:08;;;;;;;3.53;2.28;;;;;;;8.25;77.97;93668.91;4992457;28;20438;-66
2021/05/21 02:41:33;;;;;;;3.00;1.92;;;;;;;8.24;78.34;93660.19;4992243;28;20478;-67
2021/05/21 02:43:59;;;;;;;3.33;2.13;;;;;;;8.21;78.65;93674.03;4992344;28;20076;-67
2021/05/21 02:46:24;;;;;;;3.30;2.28;;;;;;;8.22;78.86;93675.63;5010152;28;20029;-67
2021/05/21 02:48:50;;;;;;;3.63;3.28;;;;;;;8.23;78.75;93681.72;4992418;28;20030;-67
2021/05/21 02:51:15;;;;;;;5.18;3.45;;;;;;;8.26;78.78;93680.31;5008257;28;20026;-67
2021/05/21 02:53:41;;;;;;;4.65;1.98;;;;;;;8.21;78.74;93676.69;5010077;28;20379;-67
2021/05/21 02:56:06;;;;;;;2.63;1.80;;;;;;;8.22;78.95;93680.13;4992144;28;20092;-67
2021/05/21 02:58:31;;;;;;;3.38;1.83;;;;;;;8.24;79.76;93694.69;5010047;28;20041;-67
2021/05/21 03:00:57;;;;;;;3.70;2.22;;;;;;;8.25;79.60;93695.47;4991970;28;20112;-67
2021/05/21 03:03:22;;;;;;;3.38;1.77;;;;;;;8.22;78.83;93696.06;4992461;28;20109;-67
2021/05/21 03:05:48;;;;;;;2.75;1.77;;;;;;;8.24;79.19;93707.16;4992281;28;20088;-67
2021/05/21 03:08:13;;;;;;;5.32;1.95;;;;;;;8.26;79.35;93714.84;5010012;28;20081;-67
2021/05/21 03:10:39;;;;;;;2.50;1.63;;;;;;;8.22;79.43;93709.34;5009872;28;20029;-66
2021/05/21 03:13:04;;;;;;;2.80;1.83;;;;;;;8.21;79.99;93716.53;5009938;28;20401;-67
2021/05/21 03:15:30;;;;;;;2.60;1.73;;;;;;;8.22;80.03;93712.78;5009979;28;20034;-67
2021/05/21 03:17:56;;;;;;;3.60;1.70;;;;;;;8.17;79.44;93720.09;4991953;28;20045;-67
2021/05/21 03:20:22;;;;;;;2.80;1.80;;;;;;;8.14;79.71;93707.41;4992334;28;20030;-67
2021/05/21 03:22:47;;;;;;;2.80;1.90;;;;;;;8.14;80.02;93715.38;4992183;28;20049;-67
2021/05/21 03:25:14;;;;;;;3.05;2.03;;;;;;;8.21;80.05;93707.78;5009686;28;21209;-67
2021/05/21 03:27:39;;;;;;;2.88;1.90;;;;;;;8.14;80.38;93725.97;4992030;28;20026;-67
2021/05/21 03:30:08;;;;;;;4.20;2.10;;;;;;;8.16;80.62;93716.66;4991936;28;20038;-67
2021/05/21 03:32:34;;;;;;;2.88;1.98;;;;;;;8.15;80.59;93717.72;5009799;28;20462;-67
2021/05/21 03:34:59;;;;;;;2.88;2.28;;;;;;;8.10;80.88;93715.19;5009272;28;20040;-67
2021/05/21 03:37:25;;;;;;;3.63;2.30;;;;;;;8.12;81.04;93704.25;4992153;28;20034;-67
2021/05/21 03:39:50;;;;;;;3.30;2.35;;;;;;;8.16;81.15;93711.34;4991802;28;20459;-67
2021/05/21 03:42:16;;;;;;;5.05;2.30;;;;;;;8.18;80.97;93717.13;5009689;28;20121;-67
2021/05/21 03:44:41;;;;;;;3.50;2.15;;;;;;;8.16;81.08;93711.34;5008355;28;20022;-67
2021/05/21 03:47:07;;;;;;;3.58;2.53;;;;;;;8.11;81.16;93711.44;5009523;28;20033;-67
2021/05/21 03:49:32;;;;;;;7.30;2.65;;;;;;;8.13;81.19;93719.91;5009548;28;20554;-67
2021/05/21 03:52:01;;;;;;;5.07;2.83;;;;;;;8.22;81.37;93723.41;5009187;28;20515;-67
2021/05/21 03:54:26;;;;;;;3.63;2.40;;;;;;;8.28;80.96;93720.63;4991480;28;20098;-67
2021/05/21 03:56:52;;;;;;;4.68;3.00;;;;;;;8.35;81.09;93713.81;5009438;28;20050;-66
2021/05/21 03:59:18;;;;;;;4.65;2.40;;;;;;;8.41;80.45;93725.13;5009333;28;20056;-66
2021/05/21 04:01:47;;;;;;;4.03;2.50;;;;;;;8.45;80.73;93736.72;5009669;28;20018;-67
2021/05/21 04:04:13;;;;;;;3.75;2.80;;;;;;;8.44;80.72;93727.19;5011534;28;20108;-67
2021/05/21 04:06:39;;;;;;;3.90;2.58;;;;;;;8.45;81.16;93718.13;4995419;28;20101;-67
2021/05/21 04:09:08;;;;;;;3.13;2.28;;;;;;;8.42;80.63;93721.38;4994880;28;20017;-67
2021/05/21 04:11:37;;;;;;;3.13;2.22;;;;;;;8.47;80.51;93734.56;4995202;28;20022;-67
2021/05/21 04:14:04;;;;;;;4.78;2.90;;;;;;;8.49;79.93;93748.31;5012741;28;20071;-67
2021/05/21 04:16:30;;;;;;;7.68;2.70;;;;;;;8.46;79.92;93751.56;4995102;28;20513;-67
2021/05/21 04:18:55;;;;;;;3.00;2.30;;;;;;;8.47;79.67;93753.16;4995364;28;20140;-67
2021/05/21 04:21:21;;;;;;;3.97;2.60;;;;;;;8.51;79.93;93753.31;4995177;28;20117;-67
2021/05/21 04:23:47;;;;;;;5.75;2.85;;;;;;;8.50;80.01;93759.72;5012820;28;20163;-67
2021/05/21 04:26:14;;;;;;;4.03;2.72;;;;;;;8.51;79.85;93740.84;5012504;28;20034;-67
2021/05/21 04:28:39;;;;;;;4.82;3.10;;;;;;;8.46;80.23;93748.91;5032229;28;20076;-67
2021/05/21 04:31:06;;;;;;;3.92;2.13;;;;;;;8.48;80.16;93749.41;5014632;28;20029;-67
2021/05/21 04:33:31;;;;;;;3.63;2.50;;;;;;;8.50;80.54;93760.50;5024053;28;20100;-67
2021/05/21 04:35:56;;;;;;;3.95;2.47;;;;;;;8.45;80.06;93747.34;5012500;28;20057;-67
2021/05/21 04:38:22;;;;;;;3.67;2.20;;;;;;;8.47;80.31;93755.00;5012189;28;20478;-67
2021/05/21 04:40:47;;;;;;;3.55;2.80;;;;;;;8.46;79.99;93759.53;5012419;28;20032;-67
2021/05/21 04:43:13;;;;;;;2.28;1.83;;;;;;;8.56;80.12;93769.91;4994232;28;20129;-67
2021/05/21 04:45:38;;;;;;;2.60;2.00;;;;;;;8.58;79.35;93773.06;4994160;28;20398;-66
2021/05/21 04:48:04;;;;;;;2.95;2.20;;;;;;;8.58;79.42;93773.06;4995033;28;20057;-67
2021/05/21 04:50:29;;;;;;;4.63;2.25;;;;;;;8.59;79.52;93784.50;4994692;28;20029;-67
2021/05/21 04:52:55;;;;;;;3.40;2.40;;;;;;;8.55;79.29;93786.97;5011861;28;20525;-67
2021/05/21 04:55:21;;;;;;;3.85;2.70;;;;;;;8.59;80.28;93784.50;5012143;28;20033;-66
2021/05/21 04:57:50;;;;;;;2.92;2.03;;;;;;;8.67;79.77;93789.09;5012030;28;20057;-67
2021/05/21 05:00:17;;;;;;;4.07;2.30;;;;;;;8.61;79.51;93790.28;5012178;28;20029;-66
2021/05/21 05:02:43;;;;;;;2.38;1.67;;;;;;;8.69;79.74;93799.38;5007558;28;20030;-66
2021/05/21 05:05:09;;;;;;;2.75;1.95;;;;;;;8.73;79.28;93795.03;5007940;28;20052;-66
2021/05/21 05:07:34;;;;;;;2.83;1.92;;;;;;;8.79;78.70;93799.13;5012175;28;20022;-66
2021/05/21 05:10:00;;;;;;;2.47;1.75;;;;;;;8.80;79.01;93800.72;5011969;28;20159;-66
2021/05/21 05:12:25;;;;;;;3.35;2.15;;;;;;;8.79;79.18;93809.78;4994132;28;20037;-66
2021/05/21 05:14:51;;;;;;;3.45;1.80;;;;;;;8.77;79.32;93812.75;4993331;28;20141;-67
2021/05/21 05:17:16;;;;;;;4.63;1.90;;;;;;;8.78;79.36;93809.00;5011459;28;20038;-66
2021/05/21 05:19:41;;;;;;;2.92;2.22;;;;;;;8.84;79.48;93817.63;4993901;28;20030;-66
2021/05/21 05:22:07;;;;;;;2.60;1.60;;;;;;;8.84;79.33;93817.63;5011439;28;20018;-68
2021/05/21 05:24:34;;;;;;;2.63;1.48;;;;;;;8.81;79.63;93823.53;5011585;28;20057;-68
2021/05/21 05:27:00;;;;;;;2.33;1.23;;;;;;;8.78;79.28;93824.94;4993631;28;20022;-68
2021/05/21 05:29:25;;;;;;;3.10;1.60;;;;;;;8.76;79.92;93832.44;5011438;28;20524;-68
2021/05/21 05:31:52;;;;;;;3.30;1.42;;;;;;;8.81;79.85;93839.50;5011388;28;20053;-68
2021/05/21 05:34:18;;;;;;;2.75;1.27;;;;;;;8.82;79.28;93833.09;5011204;28;20022;-68
2021/05/21 05:36:43;;;;;;;4.40;1.42;;;;;;;8.87;79.33;93837.50;4993817;28;20489;-68
2021/05/21 05:39:09;;;;;;;1.95;1.45;;;;;;;8.95;79.41;93850.84;4993584;28;20037;-68
2021/05/21 05:41:34;;;;;;;2.80;2.50;;;;;;;9.02;79.33;93853.09;5011664;28;20028;-69
2021/05/21 05:44:00;;;;;;;3.08;2.00;;;;;;;9.02;78.82;93851.22;4993271;28;20040;-66
2021/05/21 05:46:25;;;;;;;2.63;1.77;;;;;;;9.07;78.73;93846.88;5011199;28;20025;-66
2021/05/21 05:48:51;;;;;;;2.22;1.80;;;;;;;9.02;78.21;93858.41;5010885;28;20088;-66
2021/05/21 05:51:17;;;;;;;2.55;2.10;;;;;;;9.08;78.76;93864.38;4993042;28;20026;-66
2021/05/21 05:53:43;;;;;;;6.38;2.25;;;;;;;9.19;78.35;93865.72;5010872;28;20040;-66
2021/05/21 05:56:09;;;;;;;3.65;2.40;;;;;;;9.22;78.15;93876.53;5010950;28;20029;-71
2021/05/21 05:58:35;;;;;;;2.50;1.88;;;;;;;9.27;77.79;93874.84;5011155;28;20025;-70
2021/05/21 06:01:01;;;;;;;3.28;2.97;;;;;;;9.30;77.72;93880.34;4993203;28;20393;-70
2021/05/21 06:03:29;;;;;;;4.00;2.50;;;;;;;9.27;78.26;93875.63;5010709;28;20033;-70
2021/05/21 06:05:58;;;;;;;2.97;1.70;;;;;;;9.36;77.47;93883.63;4993019;28;20029;-70
2021/05/21 06:08:23;;;;;;;3.33;2.30;;;;;;;9.46;77.70;93874.63;4993158;28;20405;-70
2021/05/21 06:10:50;;;;;;;2.17;1.90;;;;;;;9.59;77.23;93884.41;5010917;28;20030;-70
2021/05/21 06:13:16;;;;;;;2.13;1.70;;;;;;;9.72;76.96;93875.53;5010634;28;20025;-70
2021/05/21 06:15:41;;;;;;;1.90;1.70;;;;;;;9.96;76.74;93871.72;5010720;28;20126;-70
2021/05/21 06:18:07;;;;;;;2.00;1.60;;;;;;;10.08;75.78;93879.91;4992966;28;20053;-70
2021/05/21 06:20:34;;;;;;;2.13;1.60;;;;;;;10.17;74.52;93885.25;5010310;28;20026;-69
2021/05/21 06:23:02;;;;;;;5.53;1.83;;;;;;;10.23;75.04;93882.13;5010448;28;20033;-69
2021/05/21 06:28:12;;;;;;;3.40;1.67;;;;;;;10.28;75.04;93872.41;5010435;28;20037;-69
2021/05/21 06:30:38;;;;;;;5.55;1.30;;;;;;;10.40;74.60;93873.44;5009846;28;20107;-68
2021/05/21 06:33:04;;;;;;;2.03;1.50;;;;;;;10.62;74.97;93875.19;5010207;28;20061;-68
2021/05/21 06:35:30;;;;;;;1.60;1.23;;;;;;;10.68;72.75;93880.34;4992042;28;20089;-69
2021/05/21 06:37:56;;;;;;;1.70;1.30;;;;;;;10.73;71.94;93888.22;5009922;28;20494;-68
2021/05/21 06:40:22;;;;;;;6.55;1.98;;;;;;;10.75;71.98;93897.47;5009769;28;20112;-68
2021/05/21 06:42:48;;;;;;;15.98;1.92;;;;;;;10.62;71.97;93893.03;5010297;28;20565;-68
2021/05/21 06:45:14;;;;;;;6.68;1.80;;;;;;;10.52;70.64;93894.16;5006446;28;20026;-69
2021/05/21 06:47:40;;;;;;;4.20;2.20;;;;;;;10.55;72.00;93898.06;4992398;28;20033;-68
2021/05/21 06:50:06;;;;;;;4.57;2.13;;;;;;;10.61;72.80;93900.25;4992811;28;20564;-67
2021/05/21 06:52:31;;;;;;;14.50;2.22;;;;;;;10.57;71.45;93896.66;5010094;28;20097;-67
2021/05/21 06:54:57;;;;;;;6.65;1.65;;;;;;;10.51;70.14;93897.88;5010119;28;20022;-68
2021/05/21 06:57:22;;;;;;;2.40;1.60;;;;;;;10.56;71.37;93900.41;4992909;28;20044;-67
2021/05/21 06:59:48;;;;;;;8.00;1.20;;;;;;;10.66;71.35;93906.53;4992284;28;20022;-67
2021/05/21 07:02:13;;;;;;;3.13;1.50;;;;;;;10.65;71.30;93903.09;5010148;28;20021;-67
2021/05/21 07:04:39;;;;;;;2.15;1.15;;;;;;;10.74;70.94;93901.19;4993012;28;20021;-67
2021/05/21 07:07:04;;;;;;;3.67;1.20;;;;;;;10.81;70.11;93911.44;5009912;28;20026;-67
2021/05/21 07:09:29;;;;;;;2.45;1.50;;;;;;;10.84;69.78;93914.22;4992572;28;20141;-66
2021/05/21 07:11:55;;;;;;;22.80;2.97;;;;;;;10.81;69.60;93914.09;5009662;28;20524;-66
2021/05/21 07:14:20;;;;;;;2.40;1.20;;;;;;;10.82;69.52;93920.97;4992162;28;20026;-68
2021/05/21 07:16:46;;;;;;;5.43;1.40;;;;;;;10.75;69.96;93910.78;4992030;28;20410;-68
2021/05/21 07:19:15;;;;;;;1.95;1.25;;;;;;;10.78;69.26;93920.03;4992172;28;20109;-68
2021/05/21 07:21:41;;;;;;;3.03;1.33;;;;;;;10.73;68.40;93930.88;4992486;28;20556;-68
2021/05/21 07:24:07;;;;;;;13.85;1.63;;;;;;;10.64;69.02;93933.50;5010193;28;20026;-68
2021/05/21 07:26:33;;;;;;;3.95;2.30;;;;;;;10.58;68.78;93938.22;5006000;28;20022;-68
2021/05/21 07:28:59;;;;;;;3.03;1.40;;;;;;;10.52;69.02;93938.66;4992217;28;20030;-67
2021/05/21 07:31:27;;;;;;;1.95;1.60;;;;;;;10.57;69.13;93933.97;4992056;28;20041;-69
2021/05/21 07:33:56;;;;;;;2.17;1.52;;;;;;;10.63;69.60;93938.03;4992167;28;20021;-68
2021/05/21 07:36:23;;;;;;;2.08;1.30;;;;;;;10.63;68.98;93942.59;5009503;28;20135;-68
2021/05/21 07:38:49;;;;;;;3.88;1.50;;;;;;;10.72;69.88;93942.59;5013071;28;20033;-68
2021/05/21 07:41:16;;;;;;;3.38;2.03;;;;;;;10.81;68.60;93948.75;4996188;28;20510;-67
2021/05/21 07:43:41;;;;;;;2.83;1.58;;;;;;;10.96;69.26;93950.94;5013554;28;20026;-68
2021/05/21 07:46:06;;;;;;;5.55;2.53;;;;;;;11.20;69.60;93947.03;5013511;28;20498;-68
2021/05/21 07:48:32;;;;;;;4.75;2.92;;;;;;;11.42;70.88;93936.19;5013211;28;20452;-68
2021/05/21 07:50:57;;;;;;;18.17;2.90;;;;;;;11.52;67.17;93942.28;5013279;28;20025;-67
2021/05/21 07:53:23;;;;;;;8.18;2.42;;;;;;;11.55;67.14;93944.34;5013311;28;20026;-67
2021/05/21 07:55:48;;;;;;;2.53;1.70;;;;;;;11.55;65.57;93944.34;4995725;28;20034;-67
2021/05/21 07:58:14;;;;;;;2.30;1.60;;;;;;;11.63;65.97;93938.97;5013240;28;20034;-68
2021/05/21 08:00:41;;;;;;;2.80;2.00;;;;;;;11.77;65.38;93946.03;5013040;28;20021;-68
2021/05/21 08:03:07;;;;;;;4.07;2.35;;;;;;;11.81;65.75;93954.97;5013225;28;20029;-68
2021/05/21 08:05:32;;;;;;;3.55;1.92;;;;;;;11.84;65.49;93949.78;5012789;28;20033;-68
2021/05/21 08:07:58;;;;;;;2.88;1.92;;;;;;;11.87;65.05;93950.25;5013130;28;20555;-69
2021/05/21 08:10:23;;;;;;;4.38;2.33;;;;;;;11.77;65.06;93962.06;4995400;28;20034;-68
2021/05/21 08:12:49;;;;;;;7.38;2.72;;;;;;;11.66;66.08;93966.94;5012559;28;20071;-68
2021/05/21 08:15:14;;;;;;;7.88;3.30;;;;;;;11.54;66.84;93969.44;4995224;28;20042;-68
2021/05/21 08:17:40;;;;;;;6.22;2.83;;;;;;;11.56;67.29;93975.25;4994855;28;20119;-69
2021/05/21 08:20:06;;;;;;;5.03;2.75;;;;;;;11.65;67.45;93979.50;4994825;28;20124;-69
2021/05/21 08:22:31;;;;;;;3.42;2.65;;;;;;;11.79;66.35;93968.63;5012842;28;20464;-69
2021/05/21 08:24:57;;;;;;;3.53;2.80;;;;;;;11.88;66.54;93973.97;4994663;28;20026;-69
2021/05/21 08:27:22;;;;;;;3.85;2.83;;;;;;;11.91;65.69;93983.28;5012599;28;20026;-69
2021/05/21 08:29:47;;;;;;;5.97;2.85;;;;;;;11.97;65.85;93990.00;5012535;28;20022;-68
2021/05/21 08:32:13;;;;;;;14.07;2.95;;;;;;;11.89;65.91;93986.25;5012682;28;20034;-69
2021/05/21 08:34:38;;;;;;;5.57;2.30;;;;;;;11.91;64.70;93993.97;4994782;28;20460;-70
2021/05/21 08:37:04;;;;;;;3.55;2.05;;;;;;;12.00;63.35;94003.50;4995023;28;20032;-70
2021/05/21 08:39:29;;;;;;;2.70;1.80;;;;;;;11.99;63.02;93996.59;4994759;28;20029;-70
2021/05/21 08:41:58;;;;;;;4.38;2.08;;;;;;;12.04;62.98;93993.75;4994626;28;20054;-68
2021/05/21 08:44:25;;;;;;;4.57;2.22;;;;;;;12.06;63.21;94000.66;5012434;28;20026;-69
2021/05/21 08:46:51;;;;;;;5.15;2.13;;;;;;;12.11;63.28;94011.97;5012343;28;20028;-70
2021/05/21 08:49:19;;;;;;;4.70;2.30;;;;;;;12.11;64.22;94005.81;5011619;28;20490;-68
2021/05/21 08:51:45;;;;;;;4.05;2.58;;;;;;;12.05;63.94;94005.22;4994567;28;20414;-71
2021/05/21 08:54:11;;;;;;;3.08;2.30;;;;;;;12.01;63.59;93999.75;5012314;28;20037;-69
2021/05/21 08:56:37;;;;;;;7.88;2.58;;;;;;;11.95;64.03;94016.25;4994397;28;20026;-69
2021/05/21 08:59:02;;;;;;;8.45;2.28;;;;;;;11.93;63.32;94013.91;5011937;28;20044;-68
2021/05/21 09:01:28;;;;;;;8.50;2.72;;;;;;;11.93;63.35;94007.78;5012039;28;20409;-68
2021/05/21 09:04:02;;;;;;;5.25;2.70;;;;;;;11.92;64.16;94024.88;5011623;28;20022;-68
2021/05/21 09:06:29;;;;;;;7.95;2.78;;;;;;;11.85;63.73;94022.69;5011986;28;20034;-68
2021/05/21 09:08:58;;;;;;;7.75;2.50;;;;;;;11.76;64.32;94029.91;4994154;28;20037;-68
2021/05/21 09:11:42;;;;;;;11.43;3.92;;;;;;;11.81;64.83;94027.09;4993981;28;20180;-67
2021/05/21 09:14:11;;;;;;;10.02;3.28;;;;;;;11.84;65.57;94021.91;4994118;28;20393;-68
2021/05/21 09:16:39;;;;;;;3.67;3.10;;;;;;;11.87;65.22;94030.38;5011350;28;20033;-68
2021/05/21 09:19:20;;;;;;;4.57;3.50;;;;;;;11.98;64.71;94047.66;5010153;28;20029;-68
2021/05/21 09:21:50;;;;;;;6.22;3.55;;;;;;;12.09;64.11;94037.41;5011887;28;20026;-68
2021/05/21 09:24:17;;;;;;;4.47;3.15;;;;;;;12.02;62.69;94033.34;5011876;28;20022;-68
2021/05/21 09:26:47;;;;;;;5.35;3.80;;;;;;;12.05;64.45;94045.31;4993981;28;20038;-68
2021/05/21 09:29:15;;;;;;;6.93;3.55;;;;;;;12.07;64.97;94040.44;5011332;28;20115;-68
2021/05/21 09:31:46;;;;;;;6.47;4.07;;;;;;;12.23;66.45;94036.16;4993540;28;20117;-68
2021/05/21 09:34:14;;;;;;;4.82;3.05;;;;;;;12.44;64.25;94040.81;5011052;28;20386;-68
2021/05/21 09:36:41;;;;;;;5.28;3.70;;;;;;;12.48;63.67;94035.59;4993517;28;20405;-68
2021/05/21 09:39:10;;;;;;;10.23;4.38;;;;;;;12.46;64.36;94041.25;4993359;28;20551;-68
2021/05/21 09:41:44;;;;;;;11.05;4.63;;;;;;;12.50;63.42;94044.88;5011119;28;20108;-68
2021/05/21 09:44:10;;;;;;;6.53;4.18;;;;;;;12.47;62.37;94044.72;5010980;28;20042;-67
2021/05/21 09:46:38;;;;;;;6.60;3.55;;;;;;;12.38;62.64;94044.75;4993177;28;20064;-69
2021/05/21 09:49:37;;;;;;;10.32;4.00;;;;;;;12.12;62.35;94055.50;4993234;28;20092;-69
2021/05/21 09:52:11;;;;;;;8.65;4.80;;;;;;;12.09;64.59;94051.59;4992964;28;20018;-68
2021/05/21 09:54:56;;;;;;;4.55;3.10;;;;;;;12.10;64.45;94061.16;4993106;28;20033;-68
2021/05/21 09:57:33;;;;;;;7.90;3.83;;;;;;;12.00;64.56;94056.16;5010667;28;20111;-68
2021/05/21 09:59:59;;;;;;;5.60;4.47;;;;;;;11.82;65.60;94069.50;4993335;28;20130;-68
2021/05/21 10:02:25;;;;;;;6.25;4.22;;;;;;;11.76;66.23;94069.94;5010765;28;20105;-70
2021/05/21 10:04:52;;;;;;;8.40;4.68;;;;;;;11.79;66.45;94064.78;5011022;28;20021;-68
2021/05/21 10:07:19;;;;;;;6.18;4.28;;;;;;;11.83;66.24;94071.06;5010802;28;20477;-69
2021/05/21 10:09:44;;;;;;;5.90;3.65;;;;;;;11.78;66.62;94081.09;5011267;28;20481;-68
2021/05/21 10:12:10;;;;;;;6.93;4.50;;;;;;;11.85;67.58;94074.19;4992939;28;20117;-69
2021/05/21 10:14:37;;;;;;;6.05;4.35;;;;;;;11.91;67.47;94079.44;4992946;28;20014;-68
2021/05/21 10:17:03;;;;;;;4.78;4.13;;;;;;;11.92;67.02;94091.66;5006615;28;20080;-68
2021/05/21 10:19:32;;;;;;;6.07;3.88;;;;;;;11.94;66.97;94090.25;5010397;28;20038;-68
2021/05/21 10:21:58;;;;;;;5.20;3.88;;;;;;;12.01;66.76;94087.13;5010100;28;20067;-68
2021/05/21 10:24:29;;;;;;;4.25;3.30;;;;;;;12.03;65.48;94092.94;5010286;28;20030;-69
2021/05/21 10:26:57;;;;;;;4.63;3.08;;;;;;;12.19;66.25;94088.66;5010277;28;20144;-68
2021/05/21 10:29:26;;;;;;;4.63;3.00;;;;;;;12.42;65.75;94091.13;4992377;28;20034;-69
2021/05/21 10:31:53;;;;;;;5.53;3.00;;;;;;;12.60;64.89;94089.97;5010336;28;20026;-68
2021/05/21 10:34:23;;;;;;;5.55;3.17;;;;;;;12.89;63.94;94083.09;5010098;28;20055;-69
2021/05/21 10:36:49;;;;;;;4.68;2.63;;;;;;;13.17;61.67;94074.63;5010226;28;20040;-69
2021/05/21 10:39:22;;;;;;;4.75;3.40;;;;;;;13.25;61.65;94087.16;4992962;28;20489;-69
2021/05/21 10:41:52;;;;;;;3.95;2.75;;;;;;;13.42;60.74;94075.59;5006965;28;20504;-70
2021/05/21 10:44:19;;;;;;;3.42;2.63;;;;;;;13.66;57.81;94083.00;4992623;28;20049;-69
2021/05/21 10:46:50;;;;;;;2.72;2.00;;;;;;;13.62;58.25;94072.16;5010147;28;20099;-69
2021/05/21 10:49:25;;;;;;;3.88;2.65;;;;;;;13.81;57.90;94077.03;5009973;28;20036;-68
2021/05/21 10:51:53;;;;;;;4.05;2.75;;;;;;;13.79;58.87;94084.63;4992716;28;20481;-67
2021/05/21 10:54:36;;;;;;;4.15;2.80;;;;;;;13.97;58.66;94071.09;5010024;28;20088;-69
2021/05/21 10:57:18;;;;;;;3.28;2.60;;;;;;;14.04;57.04;94068.63;5010336;28;20486;-68
2021/05/21 10:59:43;;;;;;;4.40;2.90;;;;;;;14.03;56.93;94073.22;4992252;28;20025;-69
2021/05/21 11:02:12;;;;;;;3.50;2.72;;;;;;;14.12;56.56;94077.72;5010148;28;20060;-68
2021/05/21 11:04:37;;;;;;;5.30;3.03;;;;;;;14.04;57.12;94076.69;5010295;28;20529;-68
2021/05/21 11:07:04;;;;;;;3.45;2.78;;;;;;;13.91;56.43;94080.44;5010363;28;20145;-69
2021/05/21 11:09:31;;;;;;;5.15;2.45;;;;;;;13.75;55.53;94086.38;4992444;28;20096;-68
2021/05/21 11:12:14;;;;;;;3.85;2.60;;;;;;;13.66;56.54;94085.66;5010582;28;20025;-69
2021/05/21 11:14:44;;;;;;;4.13;2.67;;;;;;;13.53;56.18;94084.03;5014064;28;20029;-69
2021/05/21 11:17:24;;;;;;;11.80;3.17;;;;;;;13.39;57.67;94097.66;5013638;28;20131;-68
2021/05/21 11:19:58;;;;;;;4.32;2.70;;;;;;;13.27;57.61;94109.06;4996465;28;20025;-68
2021/05/21 11:22:30;;;;;;;3.78;2.90;;;;;;;13.36;58.19;94101.00;5014108;28;20148;-68
2021/05/21 11:24:55;;;;;;;3.95;3.05;;;;;;;13.41;58.61;94106.94;5014027;28;20473;-68
2021/05/21 11:27:21;;;;;;;4.03;2.88;;;;;;;13.39;58.21;94103.81;5014028;28;20040;-68
2021/05/21 11:29:49;;;;;;;3.92;3.00;;;;;;;13.40;57.56;94093.88;5013712;28;20034;-69
2021/05/21 11:32:17;;;;;;;3.83;3.05;;;;;;;13.38;58.47;94096.09;4996226;28;20037;-67
2021/05/21 11:34:43;;;;;;;3.28;2.30;;;;;;;13.35;56.55;94097.53;5013302;28;20034;-67
2021/05/21 11:37:08;;;;;;;3.63;2.53;;;;;;;13.37;58.26;94106.03;4995852;28;20107;-67